Time;durP1;ratioP1;P1;durP2;ratioP2;P2;SDS_P1;SDS_P2;PMS_P1;PMS_P2;Temp;Humidity;BMP_temperature;BMP_pressure;BME280_temperature;BME280_humidity;BME280_pressure;Samples;Min_cycle;Max_cycle;Signal;HPM_P1;HPM_P2
2024/01/10 00:00:04;;;;;;;740.47;83.80;;;;;;;;;;4903102;28;20945;-88
2024/01/10 00:02:31;;;;;;;755.45;85.05;;;;;;;;;;4879357;28;20054;-88
2024/01/10 00:04:58;;;;;;;756.47;85.85;;;;;;;;;;4883851;28;20039;-88
2024/01/10 00:07:24;;;;;;;776.70;87.43;;;;;;;;;;4880395;28;20058;-88
2024/01/10 00:09:51;;;;;;;774.08;88.68;;;;;;;;;;4880401;28;20920;-89
2024/01/10 00:12:17;;;;;;;781.15;89.95;;;;;;;;;;4877307;28;20049;-88
2024/01/10 00:14:44;;;;;;;828.30;94.75;;;;;;;;;;4876163;28;20038;-88
2024/01/10 00:17:11;;;;;;;822.10;90.72;;;;;;;;;;4873349;28;21271;-88
2024/01/10 00:19:38;;;;;;;789.92;89.40;;;;;;;;;;4867506;28;20693;-88
2024/01/10 00:22:05;;;;;;;835.28;97.20;;;;;;;;;;4873523;28;20108;-88
2024/01/10 00:24:31;;;;;;;832.03;98.43;;;;;;;;;;4871774;28;20981;-88
2024/01/10 00:26:58;;;;;;;833.90;96.38;;;;;;;;;;4870334;28;20038;-88
2024/01/10 00:29:26;;;;;;;843.92;96.43;;;;;;;;;;4870748;28;20046;-88
2024/01/10 00:31:53;;;;;;;841.08;97.07;;;;;;;;;;4864575;28;20039;-88
2024/01/10 00:34:20;;;;;;;817.55;94.70;;;;;;;;;;4869657;28;20053;-89
2024/01/10 00:36:46;;;;;;;836.50;95.55;;;;;;;;;;4869100;28;20039;-89
2024/01/10 00:39:15;;;;;;;816.13;93.80;;;;;;;;;;4868712;28;20054;-88
2024/01/10 00:41:42;;;;;;;822.85;94.82;;;;;;;;;;4868077;28;20899;-88
2024/01/10 00:44:08;;;;;;;818.78;94.82;;;;;;;;;;4888021;28;21399;-89
2024/01/10 00:46:35;;;;;;;793.72;88.72;;;;;;;;;;4895896;28;20042;-88
2024/01/10 00:49:01;;;;;;;837.80;96.63;;;;;;;;;;4890311;28;20752;-88
2024/01/10 00:51:28;;;;;;;844.47;96.95;;;;;;;;;;4871115;28;20087;-88
2024/01/10 00:53:55;;;;;;;857.38;98.88;;;;;;;;;;4869144;28;21308;-89
2024/01/10 00:56:21;;;;;;;826.30;96.85;;;;;;;;;;4870449;28;20041;-88
2024/01/10 00:58:48;;;;;;;786.92;89.68;;;;;;;;;;4870321;28;21011;-89
2024/01/10 01:01:15;;;;;;;834.40;98.55;;;;;;;;;;4872083;28;20065;-88
2024/01/10 01:03:42;;;;;;;818.03;96.32;;;;;;;;;;4887832;28;20046;-89
2024/01/10 01:06:08;;;;;;;836.00;98.85;;;;;;;;;;4888046;28;20974;-88
2024/01/10 01:08:37;;;;;;;902.88;107.07;;;;;;;;;;4902976;28;20034;-88
2024/01/10 01:11:03;;;;;;;808.88;95.10;;;;;;;;;;4913488;28;20104;-88
2024/01/10 01:13:30;;;;;;;718.20;88.07;;;;;;;;;;4896124;28;20610;-88
2024/01/10 01:15:57;;;;;;;667.60;82.43;;;;;;;;;;4907200;28;20957;-89
2024/01/10 01:18:23;;;;;;;571.30;63.47;;;;;;;;;;4924722;28;20941;-89
2024/01/10 01:20:51;;;;;;;632.65;77.75;;;;;;;;;;4919764;28;20432;-88
2024/01/10 01:23:17;;;;;;;653.97;78.50;;;;;;;;;;4917304;28;20042;-88
2024/01/10 01:26:01;;;;;;;718.65;85.53;;;;;;;;;;4913036;28;20958;-88
2024/01/10 01:28:28;;;;;;;689.85;81.18;;;;;;;;;;4910021;28;20389;-89
2024/01/10 01:30:55;;;;;;;724.75;81.63;;;;;;;;;;4905673;28;20049;-89
2024/01/10 01:33:22;;;;;;;759.67;91.15;;;;;;;;;;4904898;28;20035;-89
2024/01/10 01:35:48;;;;;;;748.10;86.75;;;;;;;;;;4900858;28;20121;-89
2024/01/10 01:38:15;;;;;;;788.83;93.90;;;;;;;;;;4892193;28;20034;-89
2024/01/10 01:40:42;;;;;;;828.17;97.07;;;;;;;;;;4891542;28;20072;-88
2024/01/10 01:43:20;;;;;;;825.70;98.18;;;;;;;;;;4889731;28;20061;-89
2024/01/10 01:45:49;;;;;;;808.92;94.25;;;;;;;;;;4886933;28;20042;-88
2024/01/10 01:48:15;;;;;;;826.13;98.38;;;;;;;;;;4888610;28;20895;-88
2024/01/10 01:50:42;;;;;;;850.17;100.07;;;;;;;;;;4888242;28;20867;-89
2024/01/10 01:53:09;;;;;;;835.95;101.05;;;;;;;;;;4887616;28;20042;-88
2024/01/10 01:55:36;;;;;;;826.05;97.10;;;;;;;;;;4889049;28;20136;-89
2024/01/10 01:58:04;;;;;;;868.55;103.05;;;;;;;;;;4886789;28;20031;-89
2024/01/10 02:03:17;;;;;;;292.27;44.95;;;;;;;;;;4913375;29;20191;-89
2024/01/10 02:05:44;;;;;;;213.60;40.90;;;;;;;;;;4922574;29;20039;-89
2024/01/10 02:08:11;;;;;;;204.10;36.65;;;;;;;;;;4960064;28;20044;-88
2024/01/10 02:10:38;;;;;;;233.50;36.38;;;;;;;;;;4926956;29;20144;-90
2024/01/10 02:13:05;;;;;;;229.68;38.35;;;;;;;;;;4961754;28;20050;-89
2024/01/10 02:15:31;;;;;;;168.90;32.90;;;;;;;;;;4927801;28;20039;-88
2024/01/10 02:17:58;;;;;;;260.65;41.95;;;;;;;;;;4927240;28;20043;-91
2024/01/10 02:20:25;;;;;;;230.85;39.33;;;;;;;;;;4924336;29;20482;-90
2024/01/10 02:22:52;;;;;;;242.07;40.95;;;;;;;;;;4938053;28;20043;-91
2024/01/10 02:25:18;;;;;;;209.07;37.60;;;;;;;;;;4927960;29;20140;-90
2024/01/10 02:27:45;;;;;;;177.30;36.17;;;;;;;;;;4965001;28;20382;-90
2024/01/10 02:30:12;;;;;;;226.05;37.60;;;;;;;;;;4921965;29;20039;-91
2024/01/10 02:32:39;;;;;;;266.42;41.05;;;;;;;;;;4931491;28;20070;-90
2024/01/10 02:35:06;;;;;;;235.15;37.30;;;;;;;;;;4949817;28;20613;-90
2024/01/10 02:37:33;;;;;;;197.93;33.53;;;;;;;;;;4927191;28;20039;-92
2024/01/10 02:40:00;;;;;;;250.07;41.00;;;;;;;;;;4931681;28;20062;-89
2024/01/10 02:42:28;;;;;;;145.60;23.08;;;;;;;;;;4944216;28;20051;-88
2024/01/10 02:44:55;;;;;;;401.83;49.08;;;;;;;;;;4901107;29;21064;-90
2024/01/10 02:47:21;;;;;;;408.23;51.97;;;;;;;;;;4920495;28;20229;-90
2024/01/10 02:49:48;;;;;;;413.55;53.40;;;;;;;;;;4896370;29;20135;-90
2024/01/10 02:52:15;;;;;;;450.65;55.33;;;;;;;;;;4930938;28;20043;-89
2024/01/10 02:54:42;;;;;;;472.90;50.95;;;;;;;;;;4893143;29;20036;-90
2024/01/10 02:57:09;;;;;;;406.02;50.17;;;;;;;;;;4902924;29;20150;-90
2024/01/10 02:59:36;;;;;;;407.50;53.75;;;;;;;;;;4896634;29;20046;-90
2024/01/10 03:02:02;;;;;;;412.67;53.78;;;;;;;;;;4897461;29;20044;-94
2024/01/10 03:04:29;;;;;;;427.92;55.97;;;;;;;;;;4901852;29;20133;-91
2024/01/10 03:06:56;;;;;;;391.13;52.88;;;;;;;;;;4903699;29;20104;-93
2024/01/10 03:09:23;;;;;;;448.52;56.42;;;;;;;;;;4913481;28;20107;-92
2024/01/10 03:11:49;;;;;;;412.40;52.72;;;;;;;;;;4918881;28;20047;-92
2024/01/10 03:14:16;;;;;;;393.08;52.38;;;;;;;;;;4902422;29;20043;-91
2024/01/10 03:16:42;;;;;;;372.40;50.13;;;;;;;;;;4939336;28;20043;-92
2024/01/10 03:19:09;;;;;;;370.90;50.00;;;;;;;;;;4902523;29;20546;-91
2024/01/10 03:21:36;;;;;;;326.90;48.33;;;;;;;;;;4906420;29;20042;-92
2024/01/10 03:24:03;;;;;;;315.98;45.47;;;;;;;;;;4925747;28;20035;-90
2024/01/10 03:26:32;;;;;;;418.95;53.40;;;;;;;;;;4917759;28;20766;-92
2024/01/10 03:28:59;;;;;;;430.30;53.55;;;;;;;;;;4910341;28;20070;-92
2024/01/10 03:31:27;;;;;;;381.30;51.15;;;;;;;;;;4931759;28;20554;-92
2024/01/10 03:33:54;;;;;;;377.75;49.40;;;;;;;;;;4903787;29;20039;-92
2024/01/10 03:36:21;;;;;;;390.38;47.13;;;;;;;;;;4904010;29;20074;-91
2024/01/10 03:38:47;;;;;;;356.77;46.08;;;;;;;;;;4898476;29;20054;-91
2024/01/10 03:41:14;;;;;;;469.10;55.45;;;;;;;;;;4927869;28;20096;-92
2024/01/10 03:43:42;;;;;;;400.85;52.95;;;;;;;;;;4897893;28;20939;-91
2024/01/10 03:46:12;;;;;;;480.58;59.72;;;;;;;;;;4914921;29;20043;-92
2024/01/10 03:48:47;;;;;;;490.73;62.13;;;;;;;;;;4925025;28;20048;-92
2024/01/10 03:51:15;;;;;;;373.00;49.72;;;;;;;;;;4898814;29;20055;-91
2024/01/10 03:53:42;;;;;;;382.35;54.20;;;;;;;;;;4904325;28;20154;-91
2024/01/10 03:56:09;;;;;;;377.83;51.03;;;;;;;;;;4918899;28;20474;-92
2024/01/10 03:58:35;;;;;;;365.33;53.58;;;;;;;;;;4938112;28;20039;-91
2024/01/10 04:01:06;;;;;;;333.33;50.65;;;;;;;;;;4940254;28;20101;-90
2024/01/10 04:03:33;;;;;;;354.27;53.05;;;;;;;;;;4922672;28;20493;-90
2024/01/10 04:06:00;;;;;;;379.95;51.83;;;;;;;;;;4927942;28;20051;-91
2024/01/10 04:08:27;;;;;;;412.67;54.60;;;;;;;;;;4901440;28;20035;-91
2024/01/10 04:10:54;;;;;;;429.65;57.78;;;;;;;;;;4921386;28;20070;-90
2024/01/10 04:13:20;;;;;;;347.30;49.00;;;;;;;;;;4902500;29;20039;-90
2024/01/10 04:15:47;;;;;;;425.00;53.17;;;;;;;;;;4899742;29;20142;-91
2024/01/10 04:18:14;;;;;;;393.95;53.45;;;;;;;;;;4905297;29;20032;-90
2024/01/10 04:20:43;;;;;;;216.50;40.10;;;;;;;;;;4917416;28;20044;-89
2024/01/10 04:23:10;;;;;;;222.05;37.03;;;;;;;;;;4961440;28;20051;-90
2024/01/10 04:25:37;;;;;;;233.02;39.55;;;;;;;;;;4915171;28;20039;-89
2024/01/10 04:28:04;;;;;;;351.55;47.65;;;;;;;;;;4918841;29;20122;-90
2024/01/10 04:30:31;;;;;;;344.75;49.13;;;;;;;;;;4923640;28;20046;-88
2024/01/10 04:32:58;;;;;;;287.20;41.38;;;;;;;;;;4934393;28;20043;-90
2024/01/10 04:35:25;;;;;;;348.95;44.10;;;;;;;;;;4908278;29;20040;-91
2024/01/10 04:37:52;;;;;;;342.10;48.53;;;;;;;;;;4921694;29;20588;-90
2024/01/10 04:40:18;;;;;;;322.13;48.95;;;;;;;;;;4942214;28;20760;-89
2024/01/10 04:42:46;;;;;;;292.30;43.47;;;;;;;;;;4918504;29;20043;-90
2024/01/10 04:45:13;;;;;;;315.08;46.45;;;;;;;;;;4926407;28;20051;-89
2024/01/10 04:47:40;;;;;;;282.00;42.95;;;;;;;;;;4953128;28;20051;-90
2024/01/10 04:50:07;;;;;;;323.50;47.67;;;;;;;;;;4926002;28;20040;-90
2024/01/10 04:52:39;;;;;;;366.63;53.45;;;;;;;;;;4928548;28;20902;-89
2024/01/10 04:55:07;;;;;;;488.27;61.25;;;;;;;;;;4911873;28;20039;-90
2024/01/10 04:57:34;;;;;;;495.27;61.92;;;;;;;;;;4916497;28;20898;-90
2024/01/10 05:00:01;;;;;;;539.42;66.50;;;;;;;;;;4904816;28;20055;-90
2024/01/10 05:02:28;;;;;;;429.52;50.50;;;;;;;;;;4892449;29;20218;-91
2024/01/10 05:04:55;;;;;;;474.50;62.33;;;;;;;;;;4892147;29;20118;-90
2024/01/10 05:07:21;;;;;;;532.88;67.15;;;;;;;;;;4890351;29;20067;-90
2024/01/10 05:09:48;;;;;;;433.55;55.65;;;;;;;;;;4925777;28;20745;-89
2024/01/10 05:12:15;;;;;;;437.83;58.42;;;;;;;;;;4903750;28;20040;-90
2024/01/10 05:14:42;;;;;;;430.23;56.95;;;;;;;;;;4933656;28;20050;-90
2024/01/10 05:17:08;;;;;;;453.48;51.60;;;;;;;;;;4890923;28;20070;-89
2024/01/10 05:19:35;;;;;;;430.88;56.10;;;;;;;;;;4904078;29;20040;-90
2024/01/10 05:22:02;;;;;;;393.42;54.03;;;;;;;;;;4908356;29;21015;-90
2024/01/10 05:24:30;;;;;;;364.25;44.83;;;;;;;;;;4905991;29;20038;-91
2024/01/10 05:26:57;;;;;;;232.52;41.88;;;;;;;;;;4922570;28;20377;-89
2024/01/10 05:29:24;;;;;;;297.95;48.50;;;;;;;;;;4943504;28;20039;-89
2024/01/10 05:31:51;;;;;;;189.48;39.83;;;;;;;;;;4940144;28;20044;-89
2024/01/10 05:34:18;;;;;;;254.07;43.13;;;;;;;;;;4926582;29;20043;-89
2024/01/10 05:36:45;;;;;;;226.30;40.45;;;;;;;;;;4928952;28;20046;-89
2024/01/10 05:39:15;;;;;;;225.18;40.50;;;;;;;;;;4943859;28;20055;-89
2024/01/10 05:41:43;;;;;;;255.15;38.10;;;;;;;;;;4936449;28;20167;-88
2024/01/10 05:44:12;;;;;;;364.85;50.85;;;;;;;;;;4921100;29;20182;-91
2024/01/10 05:46:39;;;;;;;609.13;67.93;;;;;;;;;;4896505;28;20112;-90
2024/01/10 05:49:06;;;;;;;573.25;74.95;;;;;;;;;;4882837;29;20101;-90
2024/01/10 05:51:33;;;;;;;545.55;68.25;;;;;;;;;;4912778;28;20047;-90
2024/01/10 05:54:00;;;;;;;598.17;74.18;;;;;;;;;;4884107;29;20035;-90
2024/01/10 05:56:27;;;;;;;483.73;56.60;;;;;;;;;;4887579;29;20789;-91
2024/01/10 05:58:54;;;;;;;733.05;85.97;;;;;;;;;;4885947;28;20055;-91
2024/01/10 06:01:21;;;;;;;756.10;88.50;;;;;;;;;;4891264;28;20038;-91
2024/01/10 06:03:48;;;;;;;754.83;91.40;;;;;;;;;;4905296;28;20501;-89
2024/01/10 06:06:14;;;;;;;579.13;74.68;;;;;;;;;;4906994;28;20039;-90
2024/01/10 06:08:41;;;;;;;586.45;69.22;;;;;;;;;;4906320;28;20360;-90
2024/01/10 06:11:09;;;;;;;461.48;60.90;;;;;;;;;;4890242;28;20141;-90
2024/01/10 06:13:36;;;;;;;419.80;55.58;;;;;;;;;;4911554;28;20042;-90
2024/01/10 06:16:19;;;;;;;472.75;59.92;;;;;;;;;;4893732;29;20067;-91
2024/01/10 06:18:46;;;;;;;534.83;64.07;;;;;;;;;;4931600;28;20073;-90
2024/01/10 06:21:13;;;;;;;456.13;55.85;;;;;;;;;;4934895;28;20057;-90
2024/01/10 06:23:40;;;;;;;477.58;62.92;;;;;;;;;;4929277;28;20055;-89
2024/01/10 06:26:07;;;;;;;437.35;56.72;;;;;;;;;;4899725;29;20117;-90
2024/01/10 06:28:37;;;;;;;264.58;44.17;;;;;;;;;;4917362;29;20039;-92
2024/01/10 06:31:03;;;;;;;273.85;42.15;;;;;;;;;;4922380;28;20032;-86
2024/01/10 06:33:34;;;;;;;197.95;35.55;;;;;;;;;;4963608;28;20091;-92
2024/01/10 06:36:01;;;;;;;164.68;30.00;;;;;;;;;;4958523;28;20031;-92
2024/01/10 06:38:28;;;;;;;146.75;35.22;;;;;;;;;;4960503;28;20039;-93
2024/01/10 06:40:55;;;;;;;150.00;37.72;;;;;;;;;;4958449;28;20046;-93
2024/01/10 06:43:24;;;;;;;596.03;70.22;;;;;;;;;;4905737;28;20044;-89
2024/01/10 06:45:51;;;;;;;637.65;70.45;;;;;;;;;;4876571;29;20062;-88
2024/01/10 06:48:18;;;;;;;669.75;83.18;;;;;;;;;;4900342;28;20908;-87
2024/01/10 06:50:45;;;;;;;680.05;79.78;;;;;;;;;;4872786;29;20031;-89
2024/01/10 06:53:12;;;;;;;661.38;75.75;;;;;;;;;;4871526;29;20043;-89
2024/01/10 06:55:38;;;;;;;755.40;92.72;;;;;;;;;;4865859;29;20890;-89
2024/01/10 06:58:05;;;;;;;623.60;67.20;;;;;;;;;;4864015;29;20603;-89
2024/01/10 07:00:32;;;;;;;709.35;83.97;;;;;;;;;;4884513;28;20996;-89
2024/01/10 07:03:01;;;;;;;694.58;84.63;;;;;;;;;;4897807;28;20043;-89
2024/01/10 07:05:31;;;;;;;709.85;88.25;;;;;;;;;;4861562;29;20734;-88
2024/01/10 07:07:58;;;;;;;714.28;76.20;;;;;;;;;;4852978;29;20046;-90
2024/01/10 07:10:27;;;;;;;672.80;81.18;;;;;;;;;;4883452;28;20142;-91
2024/01/10 07:12:55;;;;;;;242.05;42.90;;;;;;;;;;4950464;28;20566;-94
2024/01/10 07:15:24;;;;;;;141.52;24.90;;;;;;;;;;4945076;28;20039;-94
2024/01/10 07:17:52;;;;;;;140.75;34.28;;;;;;;;;;4972448;28;20050;-93
2024/01/10 07:20:35;;;;;;;149.30;27.35;;;;;;;;;;5103879;27;20916;-93
2024/01/10 07:23:02;;;;;;;98.65;25.17;;;;;;;;;;5088855;28;20429;-94
2024/01/10 07:25:29;;;;;;;145.27;29.30;;;;;;;;;;5086923;28;20028;-93
2024/01/10 07:27:56;;;;;;;165.70;37.10;;;;;;;;;;5084096;28;20067;-93
2024/01/10 07:30:23;;;;;;;103.78;32.35;;;;;;;;;;5083519;28;20460;-95
2024/01/10 07:32:50;;;;;;;133.95;36.42;;;;;;;;;;5087140;28;20043;-94
2024/01/10 07:35:17;;;;;;;172.35;26.35;;;;;;;;;;5086708;28;20564;-94
2024/01/10 07:37:44;;;;;;;129.18;29.98;;;;;;;;;;5087149;28;20058;-93
2024/01/10 07:40:13;;;;;;;177.60;34.40;;;;;;;;;;5098753;28;20033;-94
2024/01/10 07:42:40;;;;;;;131.82;22.95;;;;;;;;;;5087003;28;20063;-93
2024/01/10 07:45:08;;;;;;;95.35;23.25;;;;;;;;;;5104040;28;20028;-93
2024/01/10 07:47:38;;;;;;;125.18;30.95;;;;;;;;;;5088370;28;20043;-93
2024/01/10 07:50:06;;;;;;;152.75;25.08;;;;;;;;;;5084431;28;20137;-94
2024/01/10 07:52:33;;;;;;;111.75;28.77;;;;;;;;;;5086883;28;20036;-94
2024/01/10 07:55:00;;;;;;;100.50;25.30;;;;;;;;;;5087097;28;20028;-94
2024/01/10 07:57:27;;;;;;;142.98;27.83;;;;;;;;;;5088454;28;20028;-94
2024/01/10 07:59:54;;;;;;;99.90;26.98;;;;;;;;;;5075609;28;20566;-94
2024/01/10 08:02:21;;;;;;;110.70;31.13;;;;;;;;;;5085164;28;20047;-94
2024/01/10 08:04:48;;;;;;;163.02;35.72;;;;;;;;;;5086017;28;20498;-94
2024/01/10 08:07:15;;;;;;;292.20;36.58;;;;;;;;;;5085515;28;20482;-94
2024/01/10 08:09:42;;;;;;;151.73;33.85;;;;;;;;;;5085898;28;20040;-94
2024/01/10 08:12:09;;;;;;;155.25;31.20;;;;;;;;;;5069289;28;20486;-94
2024/01/10 08:14:37;;;;;;;140.40;24.67;;;;;;;;;;5086083;28;20040;-94
2024/01/10 08:17:06;;;;;;;104.07;27.73;;;;;;;;;;5087771;28;20032;-94
2024/01/10 08:19:33;;;;;;;103.22;26.45;;;;;;;;;;5099579;28;20074;-94
2024/01/10 08:22:02;;;;;;;147.32;27.08;;;;;;;;;;5086104;28;20027;-93
2024/01/10 08:24:29;;;;;;;95.10;24.73;;;;;;;;;;5084558;28;20043;-92
2024/01/10 08:26:58;;;;;;;99.50;27.38;;;;;;;;;;5084339;28;20052;-93
2024/01/10 08:29:30;;;;;;;160.63;33.00;;;;;;;;;;5100729;28;20032;-94
2024/01/10 08:31:57;;;;;;;137.30;30.05;;;;;;;;;;5087175;28;20037;-94
2024/01/10 08:34:24;;;;;;;103.05;23.08;;;;;;;;;;5074126;28;20133;-94
2024/01/10 08:36:51;;;;;;;251.98;38.28;;;;;;;;;;5060657;28;21047;-94
2024/01/10 08:39:18;;;;;;;268.95;35.25;;;;;;;;;;5056208;28;20123;-95
2024/01/10 08:41:47;;;;;;;442.38;55.88;;;;;;;;;;5058565;28;20037;-93
2024/01/10 08:44:15;;;;;;;161.82;33.78;;;;;;;;;;5023295;28;20044;-92
2024/01/10 08:46:42;;;;;;;549.40;60.08;;;;;;;;;;5003448;28;20554;-92
2024/01/10 08:49:11;;;;;;;580.03;69.25;;;;;;;;;;5018169;28;20036;-92
2024/01/10 08:51:40;;;;;;;664.08;75.03;;;;;;;;;;5015904;28;20035;-91
2024/01/10 08:54:07;;;;;;;621.33;71.45;;;;;;;;;;5023877;28;20163;-91
2024/01/10 08:56:34;;;;;;;414.95;51.20;;;;;;;;;;5020725;28;20581;-92
2024/01/10 08:59:01;;;;;;;308.30;38.03;;;;;;;;;;5005492;28;20036;-93
2024/01/10 09:01:35;;;;;;;434.63;52.95;;;;;;;;;;5031240;28;20079;-93
2024/01/10 09:04:04;;;;;;;379.88;50.03;;;;;;;;;;5041902;28;20060;-92
2024/01/10 09:06:32;;;;;;;463.38;51.38;;;;;;;;;;5032576;28;20052;-93
2024/01/10 09:08:59;;;;;;;456.10;53.47;;;;;;;;;;5025190;28;20147;-92
2024/01/10 09:11:25;;;;;;;308.38;40.25;;;;;;;;;;5038971;28;20037;-91
2024/01/10 09:13:52;;;;;;;406.27;52.42;;;;;;;;;;5024425;28;20697;-93
2024/01/10 09:16:19;;;;;;;632.53;70.97;;;;;;;;;;5031326;28;20941;-91
2024/01/10 09:18:46;;;;;;;544.80;64.32;;;;;;;;;;5027027;28;20049;-91
2024/01/10 09:21:12;;;;;;;848.58;96.15;;;;;;;;;;5009287;28;20139;-91
2024/01/10 09:23:39;;;;;;;757.03;87.13;;;;;;;;;;4984402;28;20037;-90
2024/01/10 09:26:06;;;;;;;766.72;89.57;;;;;;;;;;4987949;28;20032;-89
2024/01/10 09:28:33;;;;;;;788.05;88.72;;;;;;;;;;4984298;28;20048;-90
2024/01/10 09:31:00;;;;;;;789.92;89.93;;;;;;;;;;4986816;28;20040;-90
2024/01/10 09:33:26;;;;;;;793.85;90.85;;;;;;;;;;4980166;28;20041;-89
2024/01/10 09:35:53;;;;;;;686.58;75.50;;;;;;;;;;4985303;28;20036;-89
2024/01/10 09:38:19;;;;;;;799.63;89.45;;;;;;;;;;4986011;28;20037;-89
2024/01/10 09:40:46;;;;;;;841.08;90.53;;;;;;;;;;4981898;28;20044;-88
2024/01/10 09:43:13;;;;;;;805.05;91.18;;;;;;;;;;4981067;28;20037;-89
2024/01/10 09:45:46;;;;;;;828.40;93.22;;;;;;;;;;4994634;28;20151;-90
2024/01/10 09:48:13;;;;;;;794.22;88.25;;;;;;;;;;4986816;28;20357;-89
2024/01/10 09:50:41;;;;;;;723.55;83.15;;;;;;;;;;5007482;28;20037;-90
2024/01/10 09:53:20;;;;;;;144.63;29.73;;;;;;;;;;5063452;28;20490;-93
2024/01/10 09:55:47;;;;;;;116.22;24.90;;;;;;;;;;5061164;28;20036;-92
2024/01/10 09:58:13;;;;;;;213.93;36.17;;;;;;;;;;5068802;28;20036;-92
2024/01/10 10:00:40;;;;;;;243.25;35.65;;;;;;;;;;5063487;28;20047;-91
2024/01/10 10:03:08;;;;;;;128.02;32.00;;;;;;;;;;5065545;28;20039;-94
2024/01/10 10:05:35;;;;;;;114.32;33.22;;;;;;;;;;5069876;28;20036;-93
2024/01/10 10:08:02;;;;;;;124.68;29.88;;;;;;;;;;5067947;28;20471;-93
2024/01/10 10:10:40;;;;;;;94.38;29.55;;;;;;;;;;5064895;28;20509;-94
2024/01/10 10:13:25;;;;;;;168.52;32.00;;;;;;;;;;5065032;28;20052;-94
2024/01/10 10:16:02;;;;;;;135.02;32.20;;;;;;;;;;5070612;28;20067;-95
2024/01/10 10:18:29;;;;;;;95.32;30.48;;;;;;;;;;5067688;28;20144;-93
2024/01/10 10:21:08;;;;;;;108.43;30.67;;;;;;;;;;5070110;28;20032;-94
2024/01/10 10:23:35;;;;;;;127.93;33.60;;;;;;;;;;5067431;28;20124;-95
2024/01/10 10:26:21;;;;;;;159.85;33.72;;;;;;;;;;5063078;28;20510;-95
2024/01/10 10:28:53;;;;;;;208.93;38.53;;;;;;;;;;5068797;28;20033;-95
2024/01/10 10:31:21;;;;;;;195.25;33.70;;;;;;;;;;5087401;28;20082;-95
2024/01/10 11:34:13;;;;;;;745.08;85.80;;;;;;;;;;6109479;22;1511125;-89
2024/01/10 11:37:23;;;;;;;692.38;80.57;;;;;;;;;;6139682;23;20024;-87
2024/01/10 11:39:55;;;;;;;596.22;66.15;;;;;;;;;;6158348;23;20481;-87
2024/01/10 11:42:23;;;;;;;784.78;92.72;;;;;;;;;;6150631;22;20115;-87
2024/01/10 11:44:51;;;;;;;744.97;86.68;;;;;;;;;;6153349;22;20111;-87
2024/01/10 11:47:19;;;;;;;720.28;85.57;;;;;;;;;;6149862;23;20510;-87
2024/01/10 11:49:58;;;;;;;740.65;86.45;;;;;;;;;;6144610;22;20932;-87
2024/01/10 11:52:32;;;;;;;755.70;87.75;;;;;;;;;;6112936;23;20023;-87
2024/01/10 11:54:58;;;;;;;;;;;;;;;;;;6137368;22;20027;-87
2024/01/10 11:57:26;;;;;;;766.35;84.93;;;;;;;;;;6135650;23;20000;-88
2024/01/10 11:59:56;;;;;;;782.65;87.65;;;;;;;;;;6137134;23;20182;-87
2024/01/10 12:02:25;;;;;;;806.72;90.68;;;;;;;;;;6138585;22;20020;-87
2024/01/10 12:04:52;;;;;;;770.95;85.20;;;;;;;;;;6139151;22;20042;-87
2024/01/10 12:07:19;;;;;;;806.92;91.40;;;;;;;;;;6132791;22;20020;-87
2024/01/10 12:09:47;;;;;;;778.30;87.22;;;;;;;;;;6134727;22;20042;-90
2024/01/10 12:12:14;;;;;;;696.15;76.30;;;;;;;;;;6152730;22;20019;-86
2024/01/10 12:14:43;;;;;;;750.47;83.63;;;;;;;;;;6146554;22;20031;-88
2024/01/10 12:17:13;;;;;;;171.70;26.40;;;;;;;;;;6247507;23;20016;-94
2024/01/10 12:19:44;;;;;;;286.02;40.42;;;;;;;;;;6211065;23;20131;-90
2024/01/10 12:22:44;;;;;;;;;;;;;;;;;;;;;
2024/01/10 12:26:14;;;;;;;;;;;;;;;;;;;;;
2024/01/10 12:33:50;;;;;;;;;;;;;;;;;;;;;
2024/01/10 12:37:37;;;;;;;;;;;;;;;;;;;;;
2024/01/10 12:44:48;;;;;;;95.85;24.23;;;;;;;;;;6041863;23;20025;-93
2024/01/10 12:48:10;;;;;;;170.23;21.30;;;;;;;;;;6018516;23;20015;-93
2024/01/10 12:51:30;;;;;;;233.65;33.47;;;;;;;;;;5922490;24;20036;-94
2024/01/10 12:54:42;;;;;;;;;;;;;;;;;;;;;
2024/01/10 12:58:17;;;;;;;149.85;28.17;;;;;;;;;;5948322;24;20054;-93
2024/01/10 13:01:11;;;;;;;122.13;25.52;;;;;;;;;;5932267;24;20195;-93
2024/01/10 13:12:56;;;;;;;93.18;18.95;;;;;;;;;;6036773;23;20502;-92
2024/01/10 13:19:39;;;;;;;162.40;23.85;;;;;;;;;;6111333;23;20026;-93
2024/01/10 15:04:16;;;;;;;1024.90;110.03;;;;;;;;;;6228023;22;21089;-85
2024/01/10 15:06:43;;;;;;;1043.93;112.10;;;;;;;;;;6195486;22;20219;-87
2024/01/10 15:09:10;;;;;;;936.90;99.32;;;;;;;;;;6181857;22;20335;-87
2024/01/10 15:11:40;;;;;;;1031.13;106.22;;;;;;;;;;6183232;22;20018;-85
2024/01/10 15:14:15;;;;;;;1011.92;100.28;;;;;;;;;;6148580;22;20986;-85
2024/01/10 15:16:42;;;;;;;1056.57;112.22;;;;;;;;;;6178982;22;20168;-86
2024/01/10 15:19:09;;;;;;;1000.28;104.95;;;;;;;;;;6124458;22;20022;-85
2024/01/10 15:21:40;;;;;;;1000.65;101.22;;;;;;;;;;6184489;22;20092;-84
2024/01/10 15:24:10;;;;;;;1094.07;119.03;;;;;;;;;;6160138;22;20057;-85
2024/01/10 15:26:41;;;;;;;1035.25;106.47;;;;;;;;;;6130485;22;20019;-86
2024/01/10 15:29:08;;;;;;;1060.50;105.05;;;;;;;;;;6182747;22;20018;-86
2024/01/10 15:31:35;;;;;;;978.95;102.10;;;;;;;;;;6195352;22;20316;-86
2024/01/10 15:34:02;;;;;;;1050.80;112.72;;;;;;;;;;6159083;22;20022;-86
2024/01/10 15:36:29;;;;;;;1019.88;110.05;;;;;;;;;;6184465;22;20080;-85
2024/01/10 15:38:56;;;;;;;1005.90;110.80;;;;;;;;;;6158589;22;20018;-85
2024/01/10 15:41:25;;;;;;;1112.65;119.03;;;;;;;;;;6186539;22;20018;-86
2024/01/10 15:43:52;;;;;;;1079.88;117.72;;;;;;;;;;6172100;22;20011;-85
2024/01/10 15:46:20;;;;;;;1016.97;104.72;;;;;;;;;;6186049;22;20019;-86
2024/01/10 15:48:47;;;;;;;1047.25;109.82;;;;;;;;;;6186872;22;20274;-88
2024/01/10 15:51:14;;;;;;;1060.20;132.23;;;;;;;;;;6161743;22;20018;-86
2024/01/10 15:53:44;;;;;;;989.33;107.82;;;;;;;;;;6162979;22;20027;-85
2024/01/10 15:56:11;;;;;;;972.45;102.03;;;;;;;;;;6194319;22;20029;-88
2024/01/10 15:58:38;;;;;;;1028.97;114.32;;;;;;;;;;6188301;22;20178;-85
2024/01/10 16:01:19;;;;;;;1011.90;111.13;;;;;;;;;;6198603;22;21097;-85
2024/01/10 16:03:46;;;;;;;947.92;106.95;;;;;;;;;;6197451;22;20026;-88
2024/01/10 16:06:12;;;;;;;995.15;106.25;;;;;;;;;;6191854;22;20941;-86
2024/01/10 16:08:39;;;;;;;1009.45;107.70;;;;;;;;;;6188295;22;20022;-83
2024/01/10 16:11:06;;;;;;;1014.00;115.88;;;;;;;;;;6189557;22;20018;-87
2024/01/10 16:13:33;;;;;;;1018.03;111.47;;;;;;;;;;6184929;22;21013;-85
2024/01/10 16:16:02;;;;;;;1002.53;118.32;;;;;;;;;;6188769;22;20180;-84
2024/01/10 16:18:29;;;;;;;985.03;109.88;;;;;;;;;;6191284;22;20118;-86
2024/01/10 16:20:56;;;;;;;1051.80;120.97;;;;;;;;;;6190500;22;20015;-86
2024/01/10 16:23:23;;;;;;;1070.85;116.30;;;;;;;;;;6185331;22;20015;-86
2024/01/10 16:25:49;;;;;;;1036.32;114.75;;;;;;;;;;6191649;22;20045;-86
2024/01/10 16:28:16;;;;;;;1037.85;111.57;;;;;;;;;;6166172;22;20048;-86
2024/01/10 16:30:43;;;;;;;1049.43;112.88;;;;;;;;;;6157733;22;20019;-83
2024/01/10 16:33:10;;;;;;;1072.25;130.07;;;;;;;;;;6157064;22;20011;-86
2024/01/10 16:35:36;;;;;;;1039.72;115.57;;;;;;;;;;6185964;22;20019;-86
2024/01/10 16:38:03;;;;;;;1052.63;112.47;;;;;;;;;;6186778;22;20030;-86
2024/01/10 16:40:30;;;;;;;1001.83;109.78;;;;;;;;;;6197618;22;20815;-86
2024/01/10 16:42:56;;;;;;;1109.97;142.70;;;;;;;;;;6192030;22;20033;-83
2024/01/10 16:45:23;;;;;;;1088.80;127.78;;;;;;;;;;6159232;22;20033;-86
2024/01/10 16:47:50;;;;;;;1029.72;120.25;;;;;;;;;;6189407;22;20321;-83
2024/01/10 16:50:17;;;;;;;1048.45;123.97;;;;;;;;;;6193561;22;20933;-84
2024/01/10 16:52:44;;;;;;;1011.47;112.40;;;;;;;;;;6190804;22;20025;-87
2024/01/10 16:55:11;;;;;;;1065.50;132.02;;;;;;;;;;6192685;22;20081;-85
2024/01/10 16:57:37;;;;;;;1021.28;115.40;;;;;;;;;;6186948;22;20986;-87
2024/01/10 17:00:04;;;;;;;1014.05;113.18;;;;;;;;;;6198188;22;20022;-84
2024/01/10 17:02:31;;;;;;;977.88;104.82;;;;;;;;;;6194620;22;20412;-84
2024/01/10 17:04:58;;;;;;;1001.33;107.70;;;;;;;;;;6199496;22;20117;-87
2024/01/10 17:07:24;;;;;;;999.58;104.90;;;;;;;;;;6200505;22;20984;-86
2024/01/10 17:09:52;;;;;;;1003.83;121.22;;;;;;;;;;6197884;22;20017;-85
2024/01/10 17:12:18;;;;;;;1018.20;119.45;;;;;;;;;;6190579;22;21055;-86
2024/01/10 17:14:45;;;;;;;1003.22;107.38;;;;;;;;;;6191184;22;20994;-85
2024/01/10 17:17:12;;;;;;;996.00;108.45;;;;;;;;;;6198313;22;21245;-82
2024/01/10 17:19:38;;;;;;;951.22;104.78;;;;;;;;;;6204522;22;20022;-87
2024/01/10 17:22:06;;;;;;;1069.85;121.38;;;;;;;;;;6193978;22;20037;-86
2024/01/10 17:24:32;;;;;;;887.50;105.03;;;;;;;;;;6200298;22;20026;-86